Time;durP1;ratioP1;P1;durP2;ratioP2;P2;SDS_P1;SDS_P2;PMS_P1;PMS_P2;Temp;Humidity;BMP_temperature;BMP_pressure;BME280_temperature;BME280_humidity;BME280_pressure;Samples;Min_cycle;Max_cycle;Signal;HPM_P1;HPM_P2
2023/07/08 00:02:11;;;;;;;11.73;5.60;;;17.80;99.90;;;;;;5047387;28;20037;-69
2023/07/08 00:04:37;;;;;;;9.82;5.70;;;17.70;99.90;;;;;;5029317;28;20030;-69
2023/07/08 00:07:03;;;;;;;13.77;6.35;;;17.60;99.90;;;;;;5046850;28;20044;-70
2023/07/08 00:09:30;;;;;;;12.82;6.82;;;17.60;99.90;;;;;;5039229;28;20033;-69
2023/07/08 00:11:57;;;;;;;13.30;6.43;;;17.60;99.90;;;;;;5046815;28;20053;-69
2023/07/08 00:14:23;;;;;;;14.75;6.60;;;17.50;99.90;;;;;;5046590;28;20017;-69
2023/07/08 00:16:49;;;;;;;10.98;5.90;;;17.50;99.90;;;;;;5046673;28;20032;-68
2023/07/08 00:19:19;;;;;;;13.43;6.40;;;17.50;99.90;;;;;;5045334;28;20394;-69
2023/07/08 00:21:45;;;;;;;14.18;6.43;;;17.50;99.90;;;;;;5046704;28;20036;-70
2023/07/08 00:24:11;;;;;;;10.57;6.57;;;17.60;99.90;;;;;;5046298;28;20026;-69
2023/07/08 00:26:37;;;;;;;11.85;7.20;;;17.50;99.90;;;;;;5046434;28;20032;-69
2023/07/08 00:29:02;;;;;;;8.88;6.20;;;17.40;99.90;;;;;;5046393;28;20026;-69
2023/07/08 00:31:31;;;;;;;13.00;6.95;;;17.30;99.90;;;;;;5046667;28;20041;-69
2023/07/08 00:33:57;;;;;;;12.70;6.95;;;17.40;99.90;;;;;;5046190;28;20025;-69
2023/07/08 00:36:24;;;;;;;12.20;7.05;;;17.30;99.90;;;;;;5028603;28;20030;-70
2023/07/08 00:38:50;;;;;;;12.23;7.38;;;17.30;99.90;;;;;;5046245;28;20148;-69
2023/07/08 00:41:25;;;;;;;11.85;6.70;;;17.30;99.90;;;;;;5045754;28;20062;-69
2023/07/08 00:43:57;;;;;;;12.30;7.18;;;17.30;99.90;;;;;;5046171;28;20029;-70
2023/07/08 00:46:31;;;;;;;16.02;7.32;;;17.20;99.90;;;;;;5027796;28;20103;-69
2023/07/08 00:49:06;;;;;;;11.13;7.20;;;17.20;99.90;;;;;;5046441;28;20064;-69
2023/07/08 00:51:32;;;;;;;11.48;7.03;;;17.20;99.90;;;;;;5028477;28;20042;-69
2023/07/08 00:53:58;;;;;;;11.85;7.28;;;17.10;99.90;;;;;;5046088;28;20037;-69
2023/07/08 00:56:35;;;;;;;14.10;7.70;;;17.30;99.90;;;;;;5045587;28;20089;-70
2023/07/08 00:59:11;;;;;;;13.18;7.13;;;17.10;99.90;;;;;;5046116;28;20071;-70
2023/07/08 01:01:41;;;;;;;14.38;7.35;;;17.20;99.90;;;;;;5045712;28;20036;-69
2023/07/08 01:04:18;;;;;;;15.27;7.43;;;17.10;99.90;;;;;;5045534;28;20083;-70
2023/07/08 01:06:52;;;;;;;14.00;7.55;;;17.10;99.90;;;;;;5045925;28;20045;-69
2023/07/08 01:09:18;;;;;;;12.15;7.30;;;17.00;99.90;;;;;;5042762;28;20037;-69
2023/07/08 01:11:44;;;;;;;11.75;7.25;;;17.10;99.90;;;;;;5045838;28;20520;-69
2023/07/08 01:14:17;;;;;;;12.52;7.38;;;17.00;99.90;;;;;;5045292;28;20026;-69
2023/07/08 01:16:42;;;;;;;16.20;8.30;;;17.00;99.90;;;;;;5045240;28;20029;-69
2023/07/08 01:19:15;;;;;;;12.50;7.75;;;17.00;99.90;;;;;;5045648;28;20044;-70
2023/07/08 01:21:53;;;;;;;12.38;8.20;;;17.00;99.90;;;;;;5045504;28;20033;-69
2023/07/08 01:24:18;;;;;;;12.70;7.82;;;17.00;99.90;;;;;;5045595;28;20025;-70
2023/07/08 01:26:45;;;;;;;15.05;8.15;;;16.90;99.90;;;;;;5044969;28;20048;-70
2023/07/08 01:29:12;;;;;;;16.02;8.63;;;16.90;99.90;;;;;;5044439;28;20466;-68
2023/07/08 01:31:38;;;;;;;15.93;8.30;;;16.80;99.90;;;;;;5043445;28;20079;-69
2023/07/08 01:34:05;;;;;;;12.55;8.40;;;16.80;99.90;;;;;;5044182;28;20068;-69
2023/07/08 01:36:42;;;;;;;12.73;7.85;;;16.80;99.90;;;;;;5045317;28;20022;-70
2023/07/08 01:39:13;;;;;;;10.02;8.00;;;16.80;99.90;;;;;;5045165;28;20543;-70
2023/07/08 01:41:39;;;;;;;21.33;8.80;;;16.70;99.90;;;;;;5045155;28;20025;-70
2023/07/08 01:44:05;;;;;;;15.57;8.82;;;16.70;99.90;;;;;;5043368;28;20037;-70
2023/07/08 01:46:31;;;;;;;16.30;8.77;;;16.70;99.90;;;;;;5045469;28;20025;-69
2023/07/08 01:49:01;;;;;;;14.75;8.02;;;16.70;99.90;;;;;;5045072;28;20111;-69
2023/07/08 01:51:27;;;;;;;11.63;8.75;;;16.60;99.90;;;;;;5044776;28;20099;-69
2023/07/08 01:53:53;;;;;;;15.30;8.63;;;16.60;99.90;;;;;;5044669;28;20900;-68
2023/07/08 01:56:18;;;;;;;13.77;8.95;;;16.60;99.90;;;;;;5044309;28;20089;-69
2023/07/08 01:58:44;;;;;;;14.93;9.65;;;16.60;99.90;;;;;;5043357;28;20044;-68
2023/07/08 02:01:10;;;;;;;15.60;9.50;;;16.60;99.90;;;;;;5045051;28;20036;-68
2023/07/08 02:03:36;;;;;;;13.90;8.98;;;16.40;99.90;;;;;;5044669;28;20061;-70
2023/07/08 02:06:03;;;;;;;14.27;9.07;;;16.40;99.90;;;;;;5044798;28;20021;-68
2023/07/08 02:08:29;;;;;;;15.77;9.32;;;16.50;99.90;;;;;;5044774;28;20040;-68
2023/07/08 02:10:56;;;;;;;13.15;9.32;;;16.50;99.90;;;;;;5044451;28;20022;-68
2023/07/08 02:13:23;;;;;;;13.75;8.95;;;16.40;99.90;;;;;;5044628;28;20112;-69
2023/07/08 02:15:49;;;;;;;16.20;8.73;;;16.40;99.90;;;;;;5044487;28;20075;-68
2023/07/08 02:18:14;;;;;;;16.23;9.52;;;16.30;99.90;;;;;;5044044;28;20029;-70
2023/07/08 02:20:40;;;;;;;14.73;9.00;;;16.40;99.90;;;;;;5044206;28;20036;-69
2023/07/08 02:23:05;;;;;;;15.43;9.27;;;16.40;99.90;;;;;;5044660;28;20492;-69
2023/07/08 02:25:31;;;;;;;16.33;9.20;;;16.40;99.90;;;;;;5044448;28;20033;-70
2023/07/08 02:27:57;;;;;;;16.02;9.73;;;16.40;99.90;;;;;;5044854;28;20034;-69
2023/07/08 02:30:27;;;;;;;17.48;9.50;;;16.30;99.90;;;;;;5044335;28;20022;-69
2023/07/08 02:32:59;;;;;;;14.48;9.65;;;16.40;99.90;;;;;;5044236;28;20045;-69
2023/07/08 02:35:28;;;;;;;14.88;9.88;;;16.30;99.90;;;;;;5043248;28;20036;-69
2023/07/08 02:37:54;;;;;;;15.82;10.13;;;16.30;99.90;;;;;;5043934;28;20055;-69
2023/07/08 02:40:21;;;;;;;15.07;9.68;;;16.20;99.90;;;;;;5043973;28;20041;-69
2023/07/08 02:42:47;;;;;;;14.70;10.07;;;16.20;99.90;;;;;;5044351;28;20056;-69
2023/07/08 02:45:13;;;;;;;13.88;9.80;;;16.30;99.90;;;;;;5043485;28;20025;-69
2023/07/08 02:47:39;;;;;;;14.98;10.30;;;16.20;99.90;;;;;;5044572;28;20048;-69
2023/07/08 02:50:05;;;;;;;13.40;9.48;;;16.20;99.90;;;;;;5042798;28;20034;-69
2023/07/08 02:52:31;;;;;;;17.38;10.95;;;16.20;99.90;;;;;;5042538;28;20045;-69
2023/07/08 02:54:56;;;;;;;16.17;10.02;;;16.20;99.90;;;;;;5042978;28;20029;-69
2023/07/08 02:57:22;;;;;;;17.27;10.38;;;16.10;99.90;;;;;;5042544;28;20029;-69
2023/07/08 02:59:47;;;;;;;20.35;10.05;;;16.10;99.90;;;;;;5043948;28;20032;-68
2023/07/08 03:02:13;;;;;;;15.82;9.88;;;16.10;99.90;;;;;;5044217;28;20026;-70
2023/07/08 03:04:39;;;;;;;17.55;10.95;;;16.10;99.90;;;;;;5043658;28;20063;-69
2023/07/08 03:07:06;;;;;;;16.40;10.50;;;16.10;99.90;;;;;;5044072;28;20100;-68
2023/07/08 03:09:32;;;;;;;18.50;10.35;;;16.10;99.90;;;;;;5044121;28;20113;-69
2023/07/08 03:11:58;;;;;;;16.27;10.57;;;16.10;99.90;;;;;;5043574;28;20041;-69
2023/07/08 03:14:24;;;;;;;18.13;10.93;;;16.10;99.90;;;;;;5043354;28;20064;-67
2023/07/08 03:16:50;;;;;;;16.52;10.63;;;16.10;99.90;;;;;;5043601;28;20056;-68
2023/07/08 03:19:16;;;;;;;15.43;9.85;;;16.10;99.90;;;;;;5043063;28;20040;-67
2023/07/08 03:21:43;;;;;;;18.33;10.80;;;16.10;99.90;;;;;;5043404;28;20033;-69
2023/07/08 03:24:13;;;;;;;18.75;11.07;;;16.00;99.90;;;;;;5043580;28;20036;-68
2023/07/08 03:26:39;;;;;;;20.77;11.43;;;16.10;99.90;;;;;;5043869;28;20030;-68
2023/07/08 03:29:05;;;;;;;16.77;10.88;;;16.00;99.90;;;;;;5043738;28;20029;-69
2023/07/08 03:31:31;;;;;;;13.75;10.20;;;16.10;99.90;;;;;;5043796;28;20037;-70
2023/07/08 03:33:56;;;;;;;15.80;10.15;;;16.00;99.90;;;;;;5045058;28;20029;-68
2023/07/08 03:36:22;;;;;;;14.70;10.15;;;16.00;99.90;;;;;;5047298;28;20032;-69
2023/07/08 03:38:52;;;;;;;16.35;9.88;;;16.00;99.90;;;;;;5047109;28;20143;-68
2023/07/08 03:41:18;;;;;;;15.05;10.57;;;16.00;99.90;;;;;;5047364;28;20068;-69
2023/07/08 03:43:44;;;;;;;15.77;10.05;;;16.00;99.90;;;;;;5047208;28;20053;-69
2023/07/08 03:46:14;;;;;;;15.15;10.15;;;16.00;99.90;;;;;;5047459;28;20474;-69
2023/07/08 03:48:42;;;;;;;17.17;10.18;;;16.00;99.90;;;;;;5047102;28;20030;-67
2023/07/08 03:51:20;;;;;;;16.33;10.40;;;16.00;99.90;;;;;;5047010;28;20026;-69
2023/07/08 03:53:46;;;;;;;15.75;9.80;;;16.00;99.90;;;;;;5047122;28;20116;-68
2023/07/08 03:56:13;;;;;;;19.27;10.52;;;16.00;99.90;;;;;;5046942;28;20033;-68
2023/07/08 03:58:39;;;;;;;15.43;10.35;;;16.00;99.90;;;;;;5046947;28;20033;-67
2023/07/08 04:01:05;;;;;;;15.75;10.68;;;16.10;99.90;;;;;;5046968;28;20017;-69
2023/07/08 04:03:30;;;;;;;16.75;10.00;;;16.00;99.90;;;;;;5046943;28;20032;-70
2023/07/08 04:05:56;;;;;;;17.08;10.60;;;16.10;99.90;;;;;;5047091;28;20085;-68
2023/07/08 04:08:21;;;;;;;17.58;10.48;;;16.10;99.90;;;;;;5046500;28;20080;-68
2023/07/08 04:10:47;;;;;;;17.27;10.07;;;16.10;99.90;;;;;;5046327;28;20025;-67
2023/07/08 04:13:12;;;;;;;16.13;10.38;;;16.00;99.90;;;;;;5046862;28;20044;-68
2023/07/08 04:15:38;;;;;;;16.73;9.95;;;16.10;99.90;;;;;;5046559;28;20029;-67
2023/07/08 04:18:04;;;;;;;14.45;10.45;;;16.10;99.90;;;;;;5046223;28;20030;-67
2023/07/08 04:20:29;;;;;;;17.30;10.13;;;16.10;99.90;;;;;;5046644;28;20056;-67
2023/07/08 04:22:55;;;;;;;15.85;9.90;;;16.10;99.90;;;;;;5046330;28;20026;-68
2023/07/08 04:25:21;;;;;;;15.90;10.30;;;16.10;99.90;;;;;;5046745;28;20090;-67
2023/07/08 04:27:47;;;;;;;18.58;10.43;;;16.10;99.90;;;;;;5046790;28;20501;-66
2023/07/08 04:30:23;;;;;;;17.27;10.18;;;16.10;99.90;;;;;;5045962;28;20025;-68
2023/07/08 04:32:50;;;;;;;15.20;9.95;;;16.10;99.90;;;;;;5046364;28;20059;-67
2023/07/08 04:35:16;;;;;;;18.05;10.35;;;16.10;99.90;;;;;;5046562;28;20040;-67
2023/07/08 04:37:41;;;;;;;15.13;10.57;;;16.10;99.90;;;;;;5045993;28;20081;-68
2023/07/08 04:40:17;;;;;;;15.63;9.75;;;16.10;99.90;;;;;;5046369;28;20046;-69
2023/07/08 04:42:44;;;;;;;19.85;11.30;;;16.20;99.90;;;;;;5046450;28;20112;-67
2023/07/08 04:45:10;;;;;;;14.98;9.45;;;16.10;99.90;;;;;;5045787;28;20044;-67
2023/07/08 04:47:36;;;;;;;15.48;9.30;;;16.20;99.90;;;;;;5046245;28;20077;-70
2023/07/08 04:50:01;;;;;;;12.35;9.30;;;16.10;99.90;;;;;;5045066;28;20025;-67
2023/07/08 04:52:27;;;;;;;16.55;10.60;;;16.20;99.90;;;;;;5046065;28;20045;-69
2023/07/08 04:54:52;;;;;;;14.98;9.95;;;16.20;99.90;;;;;;5046065;28;20026;-69
2023/07/08 04:57:18;;;;;;;13.70;9.57;;;16.30;99.90;;;;;;5046091;28;20033;-67
2023/07/08 04:59:43;;;;;;;14.13;9.45;;;16.30;99.90;;;;;;5044314;28;20120;-67
2023/07/08 05:02:09;;;;;;;13.18;8.93;;;16.30;99.90;;;;;;5046085;28;20052;-69
2023/07/08 05:04:34;;;;;;;10.85;8.60;;;16.40;99.90;;;;;;5046109;28;20033;-67
2023/07/08 05:07:00;;;;;;;14.05;9.20;;;16.40;99.90;;;;;;5046107;28;20044;-69
2023/07/08 05:09:26;;;;;;;13.93;9.27;;;16.40;99.90;;;;;;5046049;28;20584;-67
2023/07/08 05:11:52;;;;;;;15.95;9.43;;;16.40;99.90;;;;;;5045675;28;20040;-68
2023/07/08 05:14:18;;;;;;;16.52;9.27;;;16.40;99.90;;;;;;5045566;28;20025;-68
2023/07/08 05:16:43;;;;;;;13.95;8.70;;;16.50;99.90;;;;;;5046135;28;20402;-67
2023/07/08 05:19:10;;;;;;;14.68;9.05;;;16.50;99.90;;;;;;5045671;28;20471;-68
2023/07/08 05:21:35;;;;;;;12.65;9.13;;;16.60;99.90;;;;;;5045620;28;20076;-67
2023/07/08 05:24:03;;;;;;;12.38;7.80;;;16.60;99.90;;;;;;5045800;28;20022;-69
2023/07/08 05:26:28;;;;;;;12.00;8.07;;;16.70;99.90;;;;;;5045373;28;20024;-68
2023/07/08 05:28:54;;;;;;;12.45;7.88;;;16.70;99.90;;;;;;5044399;28;20482;-68
2023/07/08 05:31:19;;;;;;;9.90;7.63;;;16.80;99.90;;;;;;5044221;28;20053;-67
2023/07/08 05:33:45;;;;;;;11.85;7.45;;;16.80;99.90;;;;;;5045243;28;20045;-68
2023/07/08 05:36:10;;;;;;;11.32;7.97;;;16.90;99.90;;;;;;5045437;28;20417;-68
2023/07/08 05:38:36;;;;;;;10.60;7.65;;;17.00;99.90;;;;;;5045342;28;20033;-68
2023/07/08 05:41:02;;;;;;;14.77;7.80;;;17.00;99.90;;;;;;5045054;28;20061;-68
2023/07/08 05:43:27;;;;;;;15.82;8.30;;;17.10;99.90;;;;;;5045219;28;20112;-68
2023/07/08 05:45:59;;;;;;;10.15;7.03;;;17.10;99.90;;;;;;5045431;28;20425;-67
2023/07/08 05:48:25;;;;;;;16.30;7.88;;;17.20;99.90;;;;;;5045080;28;20021;-66
2023/07/08 05:50:50;;;;;;;12.35;7.68;;;17.30;99.90;;;;;;5045337;28;20029;-67
2023/07/08 05:53:19;;;;;;;12.80;7.07;;;17.30;99.90;;;;;;5044987;28;20041;-67
2023/07/08 05:55:45;;;;;;;12.43;7.03;;;17.40;99.90;;;;;;5044051;28;20025;-68
2023/07/08 05:58:10;;;;;;;10.80;6.80;;;17.40;99.90;;;;;;5043774;28;20363;-67
2023/07/08 06:00:36;;;;;;;11.80;7.10;;;17.50;99.90;;;;;;5043695;28;20375;-67
2023/07/08 06:03:02;;;;;;;10.02;6.78;;;17.60;99.90;;;;;;5045066;28;20025;-67
2023/07/08 06:05:28;;;;;;;10.18;6.60;;;17.70;99.90;;;;;;5045310;28;20066;-67
2023/07/08 06:07:54;;;;;;;12.95;6.85;;;17.70;99.90;;;;;;5044780;28;20033;-68
2023/07/08 06:10:19;;;;;;;8.73;6.68;;;17.80;99.90;;;;;;5044519;28;20089;-67
2023/07/08 06:12:45;;;;;;;8.20;6.22;;;17.90;99.90;;;;;;5044571;28;20092;-68
2023/07/08 06:15:12;;;;;;;10.93;6.13;;;17.90;99.90;;;;;;5044686;28;20037;-66
2023/07/08 06:17:38;;;;;;;7.85;5.93;;;18.00;99.90;;;;;;5044727;28;20021;-68
2023/07/08 06:20:04;;;;;;;9.30;6.28;;;18.10;99.90;;;;;;5043429;28;20525;-70
2023/07/08 06:22:29;;;;;;;12.85;6.60;;;18.10;99.90;;;;;;5044848;28;20056;-67
2023/07/08 06:24:55;;;;;;;11.60;6.57;;;18.20;99.90;;;;;;5044645;28;20034;-68
2023/07/08 06:27:20;;;;;;;9.18;5.85;;;18.30;99.90;;;;;;5044596;28;20458;-68
2023/07/08 06:29:46;;;;;;;9.13;6.07;;;18.40;99.90;;;;;;5044164;28;20041;-68
2023/07/08 06:32:11;;;;;;;6.45;5.60;;;18.40;99.90;;;;;;5044466;28;20041;-67
2023/07/08 06:34:37;;;;;;;8.38;6.00;;;18.50;99.90;;;;;;5044221;28;20854;-69
2023/07/08 06:37:03;;;;;;;10.77;5.60;;;18.60;99.90;;;;;;5044587;28;20040;-68
2023/07/08 06:39:28;;;;;;;9.52;5.85;;;18.70;99.90;;;;;;5044386;28;20057;-67
2023/07/08 06:41:54;;;;;;;12.20;5.82;;;18.80;99.90;;;;;;5044368;28;20026;-68
2023/07/08 06:44:19;;;;;;;8.25;5.60;;;18.80;99.90;;;;;;5044256;28;20430;-69
2023/07/08 06:46:45;;;;;;;12.38;5.95;;;18.90;99.90;;;;;;5044469;28;20026;-67
2023/07/08 06:49:11;;;;;;;7.75;5.50;;;19.10;99.90;;;;;;5044048;28;20033;-66
2023/07/08 06:51:37;;;;;;;8.48;5.32;;;19.10;99.90;;;;;;5044129;28;20049;-68
2023/07/08 06:54:10;;;;;;;9.18;5.07;;;19.20;99.90;;;;;;5054341;28;20037;-67
2023/07/08 06:56:39;;;;;;;7.03;4.95;;;19.30;99.90;;;;;;5064367;28;20053;-68
2023/07/08 06:59:06;;;;;;;10.68;5.03;;;19.30;99.90;;;;;;5064295;28;20029;-69
2023/07/08 07:01:32;;;;;;;7.32;5.20;;;19.50;99.90;;;;;;5064231;28;20025;-68
2023/07/08 07:03:57;;;;;;;6.78;4.88;;;19.50;99.90;;;;;;5063915;28;20025;-67
2023/07/08 07:06:23;;;;;;;7.13;4.95;;;19.60;99.90;;;;;;5064290;28;20084;-67
2023/07/08 07:08:48;;;;;;;8.90;5.10;;;19.80;99.90;;;;;;5068250;28;20021;-67
2023/07/08 07:11:14;;;;;;;7.32;5.13;;;19.80;99.90;;;;;;5067975;28;20025;-66
2023/07/08 07:13:40;;;;;;;10.27;4.88;;;19.90;99.90;;;;;;5068357;28;20040;-67
2023/07/08 07:16:06;;;;;;;5.88;4.70;;;20.00;99.90;;;;;;5068203;28;20049;-67
2023/07/08 07:18:31;;;;;;;10.85;5.18;;;20.10;99.90;;;;;;5067702;28;20039;-69
2023/07/08 07:20:58;;;;;;;7.90;4.60;;;20.10;99.90;;;;;;5050247;28;20032;-68
2023/07/08 07:23:24;;;;;;;6.15;4.70;;;20.30;99.90;;;;;;5067781;28;20820;-67
2023/07/08 07:25:50;;;;;;;7.28;4.70;;;20.40;99.90;;;;;;5067387;28;20100;-69
2023/07/08 07:28:16;;;;;;;8.38;5.15;;;20.40;99.90;;;;;;5067984;28;20063;-69
2023/07/08 07:30:43;;;;;;;6.97;4.90;;;20.60;99.90;;;;;;5067553;28;20079;-67
2023/07/08 07:33:09;;;;;;;6.75;4.85;;;20.70;99.90;;;;;;5044002;28;20041;-68
2023/07/08 07:35:35;;;;;;;8.75;4.97;;;20.80;99.90;;;;;;5046939;28;20021;-68
2023/07/08 07:38:00;;;;;;;9.32;5.10;;;20.90;99.90;;;;;;5034758;28;20040;-68
2023/07/08 07:40:26;;;;;;;8.55;5.20;;;21.00;99.90;;;;;;5046136;28;20058;-68
2023/07/08 07:42:51;;;;;;;6.68;4.68;;;21.10;99.90;;;;;;5047769;28;20033;-68
2023/07/08 07:45:17;;;;;;;7.90;4.80;;;21.20;99.90;;;;;;5029489;28;20089;-68
2023/07/08 07:47:43;;;;;;;6.80;4.68;;;21.30;99.90;;;;;;5047319;28;20056;-67
2023/07/08 07:50:09;;;;;;;8.25;4.53;;;21.40;99.90;;;;;;5047043;28;20034;-68
2023/07/08 07:52:35;;;;;;;8.00;4.65;;;21.50;99.90;;;;;;5046062;28;20645;-68
2023/07/08 07:55:02;;;;;;;8.68;4.95;;;21.50;99.90;;;;;;5047267;28;20034;-68
2023/07/08 07:57:27;;;;;;;9.35;4.75;;;21.60;99.90;;;;;;5047244;28;20037;-67
2023/07/08 07:59:53;;;;;;;6.32;4.65;;;21.80;99.90;;;;;;5046898;28;20033;-67
2023/07/08 08:02:19;;;;;;;7.40;4.78;;;21.90;99.90;;;;;;5047111;28;20053;-65
2023/07/08 08:04:45;;;;;;;6.53;4.70;;;22.00;99.90;;;;;;5045863;28;20032;-65
2023/07/08 08:07:10;;;;;;;9.55;4.68;;;22.00;99.90;;;;;;5046840;28;20030;-68
2023/07/08 08:09:37;;;;;;;7.38;4.75;;;22.20;99.90;;;;;;5046892;28;20061;-67
2023/07/08 08:12:04;;;;;;;8.20;4.65;;;22.20;99.90;;;;;;5046315;28;20099;-67
2023/07/08 08:14:30;;;;;;;8.77;4.63;;;22.30;99.90;;;;;;5046607;28;20092;-68
2023/07/08 08:16:55;;;;;;;7.82;4.97;;;22.40;99.90;;;;;;5046958;28;20085;-69
2023/07/08 08:19:22;;;;;;;8.35;4.20;;;22.50;99.90;;;;;;5046074;28;20068;-65
2023/07/08 08:21:48;;;;;;;6.53;4.72;;;22.60;99.90;;;;;;5046478;28;20028;-65
2023/07/08 08:24:16;;;;;;;7.85;4.50;;;22.70;99.90;;;;;;5046694;28;20025;-65
2023/07/08 08:26:42;;;;;;;7.50;4.78;;;22.80;99.90;;;;;;5046465;28;20079;-65
2023/07/08 08:29:07;;;;;;;10.60;4.55;;;22.90;99.90;;;;;;5046650;28;20386;-70
2023/07/08 08:31:33;;;;;;;9.95;4.80;;;22.90;99.90;;;;;;5046727;28;20029;-66
2023/07/08 08:33:58;;;;;;;6.13;4.28;;;23.00;99.90;;;;;;5044912;28;20049;-65
2023/07/08 08:36:24;;;;;;;6.45;4.25;;;23.10;99.90;;;;;;5045818;28;20037;-65
2023/07/08 08:38:50;;;;;;;6.82;4.55;;;23.10;99.90;;;;;;5045854;28;20022;-65
2023/07/08 08:41:18;;;;;;;9.93;4.72;;;23.20;99.90;;;;;;5045706;28;20099;-65
2023/07/08 08:43:46;;;;;;;8.25;4.45;;;23.30;99.90;;;;;;5046049;28;20078;-65
2023/07/08 08:46:33;;;;;;;7.93;4.43;;;23.40;99.90;;;;;;5043761;28;20462;-67
2023/07/08 08:49:20;;;;;;;10.55;4.38;;;23.50;99.90;;;;;;5045749;28;20048;-66
2023/07/08 08:51:46;;;;;;;6.45;4.60;;;23.60;99.90;;;;;;5042989;28;20033;-65
2023/07/08 08:54:12;;;;;;;7.82;4.40;;;23.60;99.90;;;;;;5045185;28;20060;-66
2023/07/08 08:56:46;;;;;;;7.82;4.70;;;23.70;99.90;;;;;;5046026;28;20029;-67
2023/07/08 08:59:25;;;;;;;5.38;4.38;;;23.80;99.90;;;;;;5045636;28;20097;-67
2023/07/08 09:01:52;;;;;;;6.40;4.78;;;23.90;99.90;;;;;;5031057;28;20064;-66
2023/07/08 09:04:35;;;;;;;5.80;4.55;;;24.00;99.90;;;;;;5008490;28;20026;-65
2023/07/08 09:07:17;;;;;;;7.05;4.30;;;24.10;99.90;;;;;;5027502;28;20022;-66
2023/07/08 09:10:02;;;;;;;8.60;4.28;;;24.30;99.90;;;;;;5044952;28;20044;-67
2023/07/08 09:12:30;;;;;;;6.28;4.13;;;24.50;99.90;;;;;;5045970;28;20045;-66
2023/07/08 09:14:56;;;;;;;7.82;4.50;;;24.60;99.90;;;;;;5045251;28;20351;-68
2023/07/08 09:17:30;;;;;;;4.78;4.22;;;24.80;99.90;;;;;;5045378;28;20518;-67
2023/07/08 09:20:22;;;;;;;9.65;4.30;;;25.00;99.90;;;;;;5026720;28;20083;-68
2023/07/08 09:22:53;;;;;;;6.75;4.55;;;25.10;99.90;;;;;;5039804;28;20017;-66
2023/07/08 09:25:38;;;;;;;5.57;4.20;;;25.20;99.90;;;;;;5036681;28;20033;-65
2023/07/08 09:28:04;;;;;;;4.13;3.72;;;25.30;99.90;;;;;;5029967;28;20394;-66
2023/07/08 09:30:30;;;;;;;6.05;4.45;;;25.40;99.90;;;;;;5033637;28;20026;-66
2023/07/08 09:32:56;;;;;;;8.70;4.40;;;25.50;99.90;;;;;;5025154;28;20045;-65
2023/07/08 09:35:41;;;;;;;8.60;4.10;;;25.50;99.90;;;;;;5044777;28;20462;-66
2023/07/08 09:38:12;;;;;;;8.52;4.70;;;25.70;99.90;;;;;;5044403;28;20483;-66
2023/07/08 09:40:38;;;;;;;8.27;4.38;;;25.80;99.90;;;;;;5045085;28;20050;-67
2023/07/08 09:43:25;;;;;;;6.18;4.15;;;25.90;99.90;;;;;;5045385;28;20032;-67
2023/07/08 09:45:51;;;;;;;6.57;4.47;;;26.00;99.90;;;;;;5025132;28;20588;-68
2023/07/08 09:48:23;;;;;;;9.35;4.80;;;26.00;99.90;;;;;;5036422;28;20041;-66
2023/07/08 09:50:57;;;;;;;7.60;4.38;;;26.10;99.90;;;;;;5063187;28;20408;-65
2023/07/08 09:53:23;;;;;;;7.78;4.20;;;26.10;99.90;;;;;;5060457;28;20037;-67
2023/07/08 09:55:51;;;;;;;8.10;4.50;;;26.20;99.90;;;;;;5061418;28;20028;-66
2023/07/08 09:58:25;;;;;;;7.90;4.40;;;26.20;99.90;;;;;;5061185;28;20029;-67
2023/07/08 10:00:55;;;;;;;;;;;26.30;99.90;;;;;;5062084;28;20028;-66
2023/07/08 10:03:27;;;;;;;6.18;4.15;;;26.40;99.90;;;;;;5061497;28;19928;-67
2023/07/08 10:06:00;;;;;;;6.80;4.25;;;26.50;99.90;;;;;;5059032;28;20029;-65
2023/07/08 10:08:38;;;;;;;7.15;4.70;;;26.50;99.90;;;;;;5060590;28;20116;-66
2023/07/08 10:11:28;;;;;;;6.90;4.03;;;26.60;99.90;;;;;;5061610;28;20057;-67
2023/07/08 10:14:15;;;;;;;5.85;3.97;;;26.70;99.90;;;;;;5060758;28;20072;-66
2023/07/08 10:16:41;;;;;;;6.72;4.43;;;26.80;99.90;;;;;;5060435;28;20044;-66
2023/07/08 10:19:16;;;;;;;7.35;4.10;;;26.80;99.90;;;;;;5061288;28;20021;-66
2023/07/08 10:22:00;;;;;;;5.68;4.18;;;26.90;99.90;;;;;;5061141;28;20089;-66
2023/07/08 10:25:01;;;;;;;10.38;4.07;;;27.00;99.90;;;;;;5061091;28;20033;-64
2023/07/08 10:27:29;;;;;;;9.25;4.43;;;27.10;99.90;;;;;;5040897;28;20042;-67
2023/07/08 10:30:13;;;;;;;5.43;4.30;;;27.10;99.90;;;;;;5058220;28;20044;-68
2023/07/08 10:32:57;;;;;;;5.60;3.97;;;27.20;99.90;;;;;;5060845;28;20024;-66
2023/07/08 10:35:30;;;;;;;7.33;4.20;;;27.30;99.90;;;;;;5060731;28;20091;-67
2023/07/08 10:38:08;;;;;;;6.37;4.17;;;27.40;99.90;;;;;;5060428;28;20033;-67
2023/07/08 10:40:52;;;;;;;7.05;4.40;;;27.50;99.90;;;;;;5060721;28;20033;-68
2023/07/08 10:43:24;;;;;;;9.48;4.47;;;27.50;99.90;;;;;;5060836;28;20033;-67
2023/07/08 10:46:23;;;;;;;5.25;3.95;;;27.70;99.90;;;;;;5056801;28;20053;-66
2023/07/08 10:49:08;;;;;;;6.22;3.85;;;27.70;99.90;;;;;;5047534;28;20048;-66
2023/07/08 10:51:48;;;;;;;31.63;6.05;;;27.90;99.90;;;;;;5048056;28;20030;-67
2023/07/08 10:54:34;;;;;;;16.48;4.60;;;28.00;99.90;;;;;;5040684;28;20029;-67
2023/07/08 10:57:18;;;;;;;9.65;3.90;;;28.10;99.90;;;;;;5041338;28;20026;-68
2023/07/08 10:59:52;;;;;;;5.45;3.85;;;28.20;99.90;;;;;;5056170;28;20025;-67
2023/07/08 11:02:56;;;;;;;10.38;4.28;;;28.30;99.90;;;;;;5046694;28;20036;-67
2023/07/08 11:05:40;;;;;;;9.85;4.10;;;28.30;99.90;;;;;;5047383;28;20055;-68
2023/07/08 11:08:25;;;;;;;6.25;4.20;;;28.50;99.90;;;;;;5047061;28;20022;-66
2023/07/08 11:10:55;;;;;;;6.53;4.20;;;28.50;99.90;;;;;;5047050;28;20037;-66
2023/07/08 11:13:24;;;;;;;8.35;4.22;;;28.50;99.90;;;;;;5047184;28;20061;-68
2023/07/08 11:16:00;;;;;;;6.63;4.15;;;28.50;99.90;;;;;;5046769;28;20033;-69
2023/07/08 11:18:29;;;;;;;5.75;4.43;;;28.60;99.90;;;;;;5046984;28;20029;-67
2023/07/08 11:21:03;;;;;;;6.18;4.00;;;28.60;99.90;;;;;;5047075;28;20033;-66
2023/07/08 11:23:38;;;;;;;8.80;4.22;;;28.60;99.90;;;;;;5046722;28;20124;-66
2023/07/08 11:26:09;;;;;;;9.70;4.05;;;28.80;99.90;;;;;;5040183;28;20041;-68
2023/07/08 11:28:35;;;;;;;7.18;4.10;;;28.90;99.90;;;;;;5046858;28;20052;-67
2023/07/08 11:31:04;;;;;;;7.72;4.13;;;29.10;99.90;;;;;;5046553;28;20037;-67
2023/07/08 11:33:31;;;;;;;5.85;4.07;;;29.20;99.90;;;;;;5046964;28;20025;-67
2023/07/08 11:36:00;;;;;;;7.10;4.07;;;29.40;99.90;;;;;;5046470;28;20124;-67
2023/07/08 11:38:25;;;;;;;4.43;3.78;;;29.40;99.90;;;;;;5045786;28;20087;-72
2023/07/08 11:41:04;;;;;;;8.68;4.38;;;29.40;99.90;;;;;;5046824;28;20034;-66
2023/07/08 11:44:02;;;;;;;6.32;4.43;;;29.50;99.90;;;;;;5046851;28;20036;-67
2023/07/08 11:46:31;;;;;;;7.88;4.32;;;29.60;99.90;;;;;;5030247;28;20050;-66
2023/07/08 11:49:01;;;;;;;6.18;4.10;;;29.70;99.90;;;;;;5046609;28;20049;-66
2023/07/08 11:51:31;;;;;;;5.10;3.95;;;29.80;99.90;;;;;;5046347;28;20029;-67
2023/07/08 11:53:59;;;;;;;6.97;3.80;;;29.90;99.90;;;;;;5046524;28;20060;-67
2023/07/08 11:56:26;;;;;;;5.38;4.03;;;30.00;99.90;;;;;;5046430;28;20029;-67
2023/07/08 11:59:03;;;;;;;4.88;3.90;;;30.10;99.90;;;;;;5046005;28;20812;-67
2023/07/08 12:01:53;;;;;;;8.13;4.47;;;30.20;99.90;;;;;;5046762;28;20053;-66
2023/07/08 12:04:26;;;;;;;6.28;3.80;;;30.30;99.90;;;;;;5046068;28;20034;-65
2023/07/08 12:07:23;;;;;;;6.22;4.50;;;30.30;99.90;;;;;;5046003;28;20029;-68
2023/07/08 12:10:09;;;;;;;5.88;4.28;;;30.30;99.90;;;;;;5045846;28;20052;-67
2023/07/08 12:12:37;;;;;;;5.43;3.88;;;30.30;99.90;;;;;;5044523;28;20117;-68
2023/07/08 12:15:24;;;;;;;7.05;3.90;;;30.40;99.90;;;;;;5045806;28;20070;-68
2023/07/08 12:17:55;;;;;;;9.82;3.97;;;30.60;99.90;;;;;;5046072;28;20026;-68
2023/07/08 12:20:36;;;;;;;6.07;4.40;;;30.70;99.90;;;;;;5045505;28;20040;-66
2023/07/08 12:23:08;;;;;;;7.07;4.10;;;30.70;99.90;;;;;;5045822;28;20033;-67
2023/07/08 12:25:35;;;;;;;6.53;4.05;;;30.70;99.90;;;;;;5046037;28;20532;-68
2023/07/08 12:28:02;;;;;;;6.60;4.07;;;30.90;99.90;;;;;;5045582;28;20022;-66
2023/07/08 12:30:30;;;;;;;8.27;3.95;;;31.00;99.90;;;;;;5044336;28;20042;-68
2023/07/08 12:32:59;;;;;;;6.45;3.95;;;31.10;99.90;;;;;;5045050;28;20037;-67
2023/07/08 12:35:29;;;;;;;7.13;4.10;;;31.20;99.90;;;;;;5045078;28;20368;-67
2023/07/08 12:37:59;;;;;;;9.45;4.25;;;31.20;99.90;;;;;;5045244;28;20060;-67
2023/07/08 12:40:27;;;;;;;5.80;4.47;;;31.10;99.90;;;;;;5045164;28;20032;-67
2023/07/08 12:42:53;;;;;;;9.00;4.10;;;31.10;99.90;;;;;;5051519;28;20024;-67
2023/07/08 12:45:23;;;;;;;5.82;3.90;;;31.20;99.90;;;;;;5057122;28;20037;-68
2023/07/08 12:47:49;;;;;;;7.13;4.38;;;31.30;99.90;;;;;;5062102;28;20034;-67
2023/07/08 12:50:15;;;;;;;6.28;4.15;;;31.40;99.90;;;;;;5045424;28;20052;-69
2023/07/08 12:52:46;;;;;;;5.28;4.32;;;31.40;99.90;;;;;;5025828;28;20022;-68